createdAt,value
2017-04-16T00:01:57.191Z,36.72
2017-04-16T00:04:09.672Z,36.73
2017-04-16T00:06:22.138Z,36.75
2017-04-16T00:08:34.563Z,36.76
2017-04-16T00:10:46.839Z,36.79
2017-04-16T00:12:49.104Z,36.8
2017-04-16T00:14:56.344Z,36.8
2017-04-16T00:17:08.678Z,36.83
2017-04-16T00:19:21.437Z,36.85
2017-04-16T00:21:33.875Z,36.86
2017-04-16T00:23:46.177Z,36.86
2017-04-16T00:25:53.507Z,36.88
2017-04-16T00:28:05.833Z,36.9
2017-04-16T00:30:18.347Z,36.91
2017-04-16T00:32:30.741Z,36.91
2017-04-16T00:34:43.116Z,36.94
2017-04-16T00:36:50.405Z,36.93
2017-04-16T00:39:02.838Z,36.94
2017-04-16T00:41:15.210Z,36.95
2017-04-16T00:43:22.541Z,36.96
2017-04-16T00:45:34.775Z,36.95
2017-04-16T00:47:42.025Z,36.95
2017-04-16T00:49:49.411Z,36.93
2017-04-16T00:52:01.845Z,36.94
2017-04-16T00:54:14.746Z,36.96
2017-04-16T00:56:27.077Z,36.96
2017-04-16T00:58:39.379Z,36.98
2017-04-16T01:00:51.740Z,37.01
2017-04-16T01:02:59.019Z,37.02
2017-04-16T01:05:11.709Z,37.04
2017-04-16T01:07:24.013Z,37.11
2017-04-16T01:09:31.443Z,37.09
2017-04-16T01:11:43.858Z,37.1
2017-04-16T01:13:51.252Z,37.13
2017-04-16T01:16:03.472Z,37.13
2017-04-16T01:18:15.761Z,37.15
2017-04-16T01:20:28.061Z,37.14
2017-04-16T01:22:40.494Z,37.15
2017-04-16T01:24:52.835Z,37.16
2017-04-16T01:27:05.501Z,37.16
2017-04-16T01:29:17.913Z,37.16
2017-04-16T01:31:30.200Z,37.17
2017-04-16T01:33:42.505Z,37.16
2017-04-16T01:35:44.809Z,37.18
2017-04-16T01:37:57.058Z,37.17
2017-04-16T01:40:04.525Z,37.2
2017-04-16T01:42:16.879Z,37.17
2017-04-16T01:44:29.159Z,37.18
2017-04-16T01:46:41.475Z,37.21
2017-04-16T01:48:53.952Z,37.21
2017-04-16T01:51:06.436Z,37.2
2017-04-16T01:53:18.763Z,37.22
2017-04-16T01:55:31.246Z,37.23
2017-04-16T01:57:43.446Z,37.23
2017-04-16T01:59:56.078Z,37.25
2017-04-16T02:02:08.665Z,37.26
2017-04-16T02:04:20.965Z,37.3
2017-04-16T02:06:33.289Z,37.31
2017-04-16T02:08:45.630Z,37.32
2017-04-16T02:10:57.918Z,37.31
2017-04-16T02:13:10.291Z,37.33
2017-04-16T02:15:17.707Z,37.34
2017-04-16T02:17:30.010Z,37.35
2017-04-16T02:19:37.331Z,37.35
2017-04-16T02:21:49.715Z,37.36
2017-04-16T02:24:00.150Z,37.37
2017-04-16T02:26:12.378Z,37.36
2017-04-16T02:28:24.726Z,37.35
2017-04-16T02:30:36.948Z,37.39
2017-04-16T02:32:49.271Z,37.39
2017-04-16T02:35:01.767Z,37.39
2017-04-16T02:37:14.061Z,37.39
2017-04-16T02:39:26.422Z,37.42
2017-04-16T02:41:38.662Z,37.45
2017-04-16T02:43:46.246Z,37.44
2017-04-16T02:45:58.663Z,37.43
2017-04-16T02:48:11.090Z,37.43
2017-04-16T02:50:23.430Z,37.48
2017-04-16T02:52:35.642Z,37.45
2017-04-16T02:54:48.298Z,37.45
2017-04-16T02:57:00.545Z,37.46
2017-04-16T02:59:12.756Z,37.48
2017-04-16T03:01:24.929Z,37.5
2017-04-16T03:03:37.172Z,37.51
2017-04-16T03:05:49.603Z,37.5
2017-04-16T03:08:02.357Z,37.51
2017-04-16T03:10:15.307Z,37.5
2017-04-16T03:12:27.508Z,37.53
2017-04-16T03:14:39.705Z,37.53
2017-04-16T03:16:52.017Z,37.53
2017-04-16T03:18:59.264Z,37.53
2017-04-16T03:21:11.564Z,37.56
2017-04-16T03:23:23.888Z,37.56
2017-04-16T03:25:36.218Z,37.55
2017-04-16T03:27:48.547Z,37.55
2017-04-16T03:29:55.872Z,37.57
2017-04-16T03:32:08.292Z,37.59
2017-04-16T03:34:20.949Z,37.59
2017-04-16T03:36:33.251Z,37.6
2017-04-16T03:38:45.654Z,37.6
2017-04-16T03:40:56.207Z,37.64
2017-04-16T03:43:04.060Z,37.62
2017-04-16T03:45:11.701Z,37.61
2017-04-16T03:47:23.872Z,37.59
2017-04-16T03:49:36.105Z,37.53
2017-04-16T03:51:48.388Z,37.5
2017-04-16T03:54:01.612Z,37.48
2017-04-16T03:56:14.241Z,37.47
2017-04-16T03:58:26.440Z,37.48
2017-04-16T04:00:38.719Z,37.45
2017-04-16T04:02:45.990Z,37.46
2017-04-16T04:04:58.343Z,37.46
2017-04-16T04:07:10.612Z,37.47
2017-04-16T04:09:22.858Z,37.48
2017-04-16T04:11:30.155Z,37.48
2017-04-16T04:13:42.389Z,37.48
2017-04-16T04:15:54.571Z,37.47
2017-04-16T04:18:02.355Z,37.46
2017-04-16T04:20:15.187Z,37.48
2017-04-16T04:22:22.397Z,37.46
2017-04-16T04:24:34.720Z,37.45
2017-04-16T04:26:47.040Z,37.43
2017-04-16T04:29:00.388Z,37.43
2017-04-16T04:31:12.771Z,37.43
2017-04-16T04:33:25.150Z,37.43
2017-04-16T04:35:37.498Z,37.43
2017-04-16T04:37:49.771Z,37.43
2017-04-16T04:40:02.214Z,37.39
2017-04-16T04:42:14.435Z,37.36
2017-04-16T04:44:26.754Z,37.32
2017-04-16T04:46:39.012Z,37.35
2017-04-16T04:48:51.289Z,37.36
2017-04-16T04:51:03.699Z,37.38
2017-04-16T04:53:16.514Z,37.38
2017-04-16T04:55:29.284Z,37.37
2017-04-16T04:57:41.514Z,37.34
2017-04-16T04:59:53.729Z,37.27
2017-04-16T05:02:05.894Z,37.13
2017-04-16T05:04:18.225Z,37.07
2017-04-16T05:06:30.542Z,37
2017-04-16T05:08:42.794Z,36.97
2017-04-16T05:10:59.071Z,36.93
2017-04-16T05:13:01.597Z,36.88
2017-04-16T05:15:13.953Z,36.81
2017-04-16T05:17:29.710Z,36.79
2017-04-16T05:19:41.946Z,36.82
2017-04-16T05:21:54.439Z,36.83
2017-04-16T05:24:07.749Z,36.9
2017-04-16T05:26:20.156Z,36.96
2017-04-16T05:28:33.168Z,36.97
2017-04-16T05:30:40.745Z,36.97
2017-04-16T05:32:53.025Z,36.95
2017-04-16T05:35:05.322Z,37.02
2017-04-16T05:37:17.582Z,37.09
2017-04-16T05:39:29.883Z,37.1
2017-04-16T05:41:42.241Z,37.06
2017-04-16T05:43:49.487Z,37.03
2017-04-16T05:46:06.311Z,36.92
2017-04-16T05:48:20.392Z,36.81
2017-04-16T05:50:27.752Z,36.65
2017-04-16T05:52:40.032Z,36.54
2017-04-16T05:54:47.332Z,36.52
2017-04-16T05:56:59.618Z,36.5
2017-04-16T05:59:11.797Z,36.52
2017-04-16T06:01:24.338Z,36.56
2017-04-16T06:03:36.967Z,36.47
2017-04-16T06:05:49.517Z,36.43
2017-04-16T06:08:01.792Z,36.52
2017-04-16T06:10:12.367Z,36.43
2017-04-16T06:12:24.741Z,36.4
2017-04-16T06:14:37.085Z,36.38
2017-04-16T06:16:44.425Z,36.42
2017-04-16T06:18:56.734Z,36.39
2017-04-16T06:21:04.058Z,36.38
2017-04-16T06:23:16.390Z,36.33
2017-04-16T06:25:28.645Z,36.14
2017-04-16T06:27:40.867Z,36.04
2017-04-16T06:29:53.299Z,35.93
2017-04-16T06:32:05.661Z,35.92
2017-04-16T06:34:17.918Z,35.87
2017-04-16T06:36:30.494Z,35.82
2017-04-16T06:38:37.965Z,35.96
2017-04-16T06:40:50.813Z,36.17
2017-04-16T06:43:03.141Z,36.17
2017-04-16T06:45:15.458Z,36.05
2017-04-16T06:47:27.766Z,35.85
2017-04-16T06:49:35.153Z,35.67
2017-04-16T06:51:47.452Z,35.67
2017-04-16T06:53:54.693Z,35.71
2017-04-16T06:56:07.044Z,35.8
2017-04-16T06:58:19.287Z,35.94
2017-04-16T07:00:31.722Z,36.05
2017-04-16T07:02:44.088Z,36.12
2017-04-16T07:04:56.318Z,36.2
2017-04-16T07:07:08.644Z,36.27
2017-04-16T07:09:20.872Z,36.31
2017-04-16T07:11:28.188Z,36.25
2017-04-16T07:13:40.711Z,36.15
2017-04-16T07:15:53.080Z,36.07
2017-04-16T07:18:05.476Z,36.03
2017-04-16T07:20:17.761Z,36
2017-04-16T07:22:30.084Z,36.02
2017-04-16T07:24:42.455Z,35.97
2017-04-16T07:26:54.732Z,35.75
2017-04-16T07:29:06.976Z,35.45
2017-04-16T07:31:19.353Z,35.23
2017-04-16T07:33:31.603Z,35.12
2017-04-16T07:35:43.949Z,34.94
2017-04-16T07:37:56.301Z,34.7
2017-04-16T07:40:08.524Z,34.61
2017-04-16T07:42:15.805Z,34.72
2017-04-16T07:44:23.137Z,34.76
2017-04-16T07:46:30.435Z,34.79
2017-04-16T07:48:42.710Z,34.65
2017-04-16T07:50:55.330Z,34.42
2017-04-16T07:53:02.602Z,34.16
2017-04-16T07:55:15.089Z,33.74
2017-04-16T07:57:27.396Z,33.51
2017-04-16T07:59:39.656Z,33.31
2017-04-16T08:01:52.004Z,33.42
2017-04-16T08:04:04.246Z,33.93
2017-04-16T08:06:16.442Z,34.43
2017-04-16T08:08:28.871Z,34.72
2017-04-16T08:10:41.116Z,34.87
2017-04-16T08:12:53.458Z,34.89
2017-04-16T08:15:05.752Z,34.94
2017-04-16T08:17:12.954Z,35.02
2017-04-16T08:19:20.344Z,34.97
2017-04-16T08:21:32.545Z,35.08
2017-04-16T08:23:44.919Z,35.3
2017-04-16T08:25:52.123Z,35.35
2017-04-16T08:28:04.366Z,35.33
2017-04-16T08:30:17.060Z,35.25
2017-04-16T08:32:29.414Z,35.49
2017-04-16T08:34:41.797Z,35.46
2017-04-16T08:36:49.105Z,35.15
2017-04-16T08:39:01.473Z,35
2017-04-16T08:41:13.849Z,34.89
2017-04-16T08:43:26.116Z,34.62
2017-04-16T08:45:33.501Z,34.4
2017-04-16T08:47:45.733Z,34.16
2017-04-16T08:49:53.052Z,33.88
2017-04-16T08:52:05.352Z,33.59
2017-04-16T08:54:17.571Z,33.55
2017-04-16T08:56:29.848Z,33.63
2017-04-16T08:58:42.236Z,33.81
2017-04-16T09:00:54.554Z,34.13
2017-04-16T09:03:06.937Z,34.25
2017-04-16T09:05:19.235Z,34.41
2017-04-16T09:07:31.663Z,34.48
2017-04-16T09:09:44.039Z,34.34
2017-04-16T09:11:51.413Z,34.15
2017-04-16T09:14:03.865Z,34.28
2017-04-16T09:16:16.145Z,34.7
2017-04-16T09:18:28.496Z,34.78
2017-04-16T09:20:40.646Z,34.49
2017-04-16T09:22:52.847Z,34.06
2017-04-16T09:25:00.180Z,33.82
2017-04-16T09:27:12.511Z,33.72
2017-04-16T09:29:24.871Z,33.71
2017-04-16T09:31:37.126Z,33.45
2017-04-16T09:33:49.337Z,33.07
2017-04-16T09:36:01.654Z,32.72
2017-04-16T09:38:13.885Z,32.59
2017-04-16T09:40:26.267Z,32.53
2017-04-16T09:42:38.592Z,32.69
2017-04-16T09:44:51.055Z,32.9
2017-04-16T09:47:03.456Z,33.08
2017-04-16T09:49:15.909Z,33.47
2017-04-16T09:51:28.390Z,33.35
2017-04-16T09:53:40.748Z,33.5
2017-04-16T09:55:52.974Z,33.73
2017-04-16T09:58:00.311Z,33.76
2017-04-16T10:00:12.604Z,33.74
2017-04-16T10:02:25.101Z,33.79
2017-04-16T10:04:37.415Z,33.62
2017-04-16T10:06:49.750Z,33.71
2017-04-16T10:08:57.156Z,34.03
2017-04-16T10:11:09.348Z,33.91
2017-04-16T10:13:21.792Z,33.5
2017-04-16T10:15:34.073Z,32.85
2017-04-16T10:17:46.446Z,32.41
2017-04-16T10:19:58.648Z,32.01
2017-04-16T10:22:10.840Z,31.58
2017-04-16T10:24:23.294Z,31.19
2017-04-16T10:26:35.551Z,30.58
2017-04-16T10:28:48.084Z,29.98
2017-04-16T10:31:00.316Z,29.62
2017-04-16T10:33:05.951Z,29.43
2017-04-16T10:35:18.153Z,29.09
2017-04-16T10:37:25.587Z,28.88
2017-04-16T10:39:37.801Z,29.07
2017-04-16T10:41:50.165Z,29.88
2017-04-16T10:44:02.551Z,30.74
2017-04-16T10:46:14.874Z,31.58
2017-04-16T10:48:22.159Z,31.91
2017-04-16T10:50:34.364Z,32.14
2017-04-16T10:52:46.716Z,32.05
2017-04-16T10:54:54.114Z,32.32
2017-04-16T10:57:06.402Z,32.88
2017-04-16T10:59:18.735Z,33.62
2017-04-16T11:01:30.979Z,34.21
2017-04-16T11:03:43.431Z,34.59
2017-04-16T11:05:56.037Z,34.88
2017-04-16T11:08:08.624Z,35
2017-04-16T11:10:20.870Z,34.83
2017-04-16T11:12:33.293Z,34.44
2017-04-16T11:14:40.691Z,33.85
2017-04-16T11:16:52.920Z,33.5
2017-04-16T11:19:05.258Z,33.59
2017-04-16T11:21:12.624Z,33.85
2017-04-16T11:23:24.939Z,33.83
2017-04-16T11:25:37.244Z,33.55
2017-04-16T11:27:44.501Z,33.45
2017-04-16T11:29:56.928Z,33.3
2017-04-16T11:32:09.191Z,32.6
2017-04-16T11:34:21.427Z,31.69
2017-04-16T11:36:33.720Z,30.78
2017-04-16T11:38:45.939Z,30.17
2017-04-16T11:40:58.445Z,30.99
2017-04-16T11:43:10.742Z,32.66
2017-04-16T11:45:18.086Z,33.87
2017-04-16T11:47:30.488Z,34.27
2017-04-16T11:49:37.921Z,34.26
2017-04-16T11:51:50.214Z,34.04
2017-04-16T11:53:57.633Z,33.54
2017-04-16T11:56:09.960Z,33.11
2017-04-16T11:58:17.354Z,32.88
2017-04-16T12:00:29.977Z,32.75
2017-04-16T12:02:42.339Z,33.18
2017-04-16T12:04:54.590Z,33.57
2017-04-16T12:07:06.950Z,33.93
2017-04-16T12:09:19.227Z,34.55
2017-04-16T12:11:31.506Z,34.8
2017-04-16T12:13:43.863Z,34.92
2017-04-16T12:15:51.117Z,35.17
2017-04-16T12:18:03.466Z,35.44
2017-04-16T12:20:11.428Z,35.67
2017-04-16T12:22:23.640Z,35.64
2017-04-16T12:24:31.109Z,35.23
2017-04-16T12:26:43.398Z,35.09
2017-04-16T12:28:55.747Z,35.4
2017-04-16T12:31:03.108Z,35.35
2017-04-16T12:33:15.514Z,35.26
2017-04-16T12:35:27.931Z,35.4
2017-04-16T12:37:30.222Z,35.48
2017-04-16T12:39:37.724Z,35.28
2017-04-16T12:41:50.158Z,35.07
2017-04-16T12:44:02.455Z,35.04
2017-04-16T12:46:14.784Z,35.25
2017-04-16T12:48:27.277Z,35.43
2017-04-16T12:50:39.669Z,35.37
2017-04-16T12:52:51.961Z,34.96
2017-04-16T12:55:04.201Z,34.64
2017-04-16T12:57:16.602Z,34.45
2017-04-16T12:59:28.912Z,34.39
2017-04-16T13:01:41.132Z,34.52
2017-04-16T13:03:53.530Z,34.83
2017-04-16T13:06:01.087Z,35.13
2017-04-16T13:08:13.478Z,34.98
2017-04-16T13:10:25.775Z,34.86
2017-04-16T13:12:33.271Z,34.86
2017-04-16T13:14:45.640Z,34.59
2017-04-16T13:16:57.937Z,34.19
2017-04-16T13:19:10.307Z,33.92
2017-04-16T13:21:22.611Z,33.92
2017-04-16T13:23:34.913Z,33.95
2017-04-16T13:25:47.266Z,34.01
2017-04-16T13:27:59.539Z,34.2
2017-04-16T13:30:11.807Z,34.24
2017-04-16T13:32:19.182Z,34.27
2017-04-16T13:34:31.516Z,34.21
2017-04-16T13:36:43.987Z,34.17
2017-04-16T13:38:56.343Z,34.33
2017-04-16T13:41:08.707Z,34.59
2017-04-16T13:43:21.214Z,34.87
2017-04-16T13:45:33.496Z,35.11
2017-04-16T13:47:40.869Z,35.38
2017-04-16T13:49:53.191Z,35.43
2017-04-16T13:52:00.547Z,35.44
2017-04-16T13:54:12.918Z,35.39
2017-04-16T13:56:25.326Z,35.24
2017-04-16T13:58:37.687Z,35.08
2017-04-16T14:00:50.228Z,34.92
2017-04-16T14:03:02.643Z,34.87
2017-04-16T14:05:14.912Z,34.81
2017-04-16T14:07:27.094Z,34.8
2017-04-16T14:09:39.440Z,34.77
2017-04-16T14:11:51.679Z,34.66
2017-04-16T14:14:04.093Z,34.65
2017-04-16T14:16:16.636Z,34.81
2017-04-16T14:18:29.316Z,34.86
2017-04-16T14:20:41.902Z,34.95
2017-04-16T14:22:54.249Z,35.05
2017-04-16T14:25:06.591Z,35.13
2017-04-16T14:27:19.068Z,35.12
2017-04-16T14:29:31.355Z,35
2017-04-16T14:31:43.803Z,34.96
2017-04-16T14:33:56.066Z,34.83
2017-04-16T14:36:08.408Z,34.7
2017-04-16T14:38:20.753Z,34.62
2017-04-16T14:40:28.122Z,34.65
2017-04-16T14:42:40.544Z,34.67
2017-04-16T14:44:52.979Z,34.72
2017-04-16T14:47:05.392Z,34.9
2017-04-16T14:49:17.685Z,35.12
2017-04-16T14:51:30.108Z,35.36
2017-04-16T14:53:42.511Z,35.45
2017-04-16T14:55:54.870Z,35.68
2017-04-16T14:58:07.368Z,35.81
2017-04-16T15:00:19.552Z,35.79
2017-04-16T15:02:31.936Z,35.65
2017-04-16T15:04:44.287Z,35.51
2017-04-16T15:06:51.544Z,35.56
2017-04-16T15:09:03.771Z,35.76
2017-04-16T15:11:16.030Z,35.75
2017-04-16T15:13:18.365Z,35.69
2017-04-16T15:15:30.777Z,35.76
2017-04-16T15:17:43.123Z,35.65
2017-04-16T15:19:55.548Z,35.51
2017-04-16T15:22:07.869Z,35.52
2017-04-16T15:24:20.257Z,35.66
2017-04-16T15:26:32.648Z,35.88
2017-04-16T15:28:44.920Z,36.15
2017-04-16T15:30:52.222Z,36.38
2017-04-16T15:33:04.453Z,36.71
2017-04-16T15:35:11.703Z,36.82
2017-04-16T15:37:24.242Z,36.76
2017-04-16T15:39:36.711Z,36.74
2017-04-16T15:41:49.055Z,36.81
2017-04-16T15:44:01.459Z,36.91
2017-04-16T15:46:13.765Z,37.03
2017-04-16T15:48:16.116Z,37.12
2017-04-16T15:50:23.537Z,37.16
2017-04-16T15:52:35.868Z,37.09
2017-04-16T15:54:48.120Z,37.06
2017-04-16T15:57:00.384Z,37.07
2017-04-16T15:59:12.667Z,37.16
2017-04-16T16:01:20.020Z,37.18
2017-04-16T16:03:32.506Z,37.28
2017-04-16T16:05:43.140Z,37.38
2017-04-16T16:07:55.386Z,37.44
2017-04-16T16:10:02.868Z,37.41
2017-04-16T16:12:10.270Z,37.41
2017-04-16T16:14:22.555Z,37.41
2017-04-16T16:16:34.894Z,37.53
2017-04-16T16:18:42.248Z,37.59
2017-04-16T16:20:54.719Z,37.54
2017-04-16T16:23:02.113Z,37.57
2017-04-16T16:25:14.584Z,37.64
2017-04-16T16:27:26.900Z,37.66
2017-04-16T16:29:39.261Z,37.68
2017-04-16T16:31:51.611Z,37.68
2017-04-16T16:34:03.963Z,37.67
2017-04-16T16:36:17.258Z,37.65
2017-04-16T16:38:27.927Z,37.67
2017-04-16T16:40:40.133Z,37.8
2017-04-16T16:42:52.438Z,37.85
2017-04-16T16:45:04.656Z,37.84
2017-04-16T16:47:11.915Z,37.89
2017-04-16T16:49:24.248Z,37.94
2017-04-16T16:51:36.501Z,37.88
2017-04-16T16:53:43.904Z,37.82
2017-04-16T16:55:56.291Z,37.87
2017-04-16T16:58:08.780Z,37.87
2017-04-16T17:00:21.409Z,37.91
2017-04-16T17:02:28.782Z,37.98
2017-04-16T17:04:41.179Z,38.04
2017-04-16T17:06:48.547Z,38.11
2017-04-16T17:09:00.863Z,38.21
2017-04-16T17:11:13.240Z,38.29
2017-04-16T17:13:20.627Z,38.38
2017-04-16T17:15:32.954Z,38.43
2017-04-16T17:17:40.335Z,38.49
2017-04-16T17:19:52.687Z,38.53
2017-04-16T17:22:04.990Z,38.54
2017-04-16T17:24:17.378Z,38.54
2017-04-16T17:26:29.594Z,38.56
2017-04-16T17:28:41.813Z,38.59
2017-04-16T17:30:54.149Z,38.61
2017-04-16T17:33:06.539Z,38.66
2017-04-16T17:35:18.894Z,38.68
2017-04-16T17:37:26.344Z,38.7
2017-04-16T17:39:33.699Z,38.72
2017-04-16T17:41:47.106Z,38.76
2017-04-16T17:43:59.642Z,38.77
2017-04-16T17:46:11.991Z,38.82
2017-04-16T17:48:24.852Z,38.84
2017-04-16T17:50:37.090Z,38.85
2017-04-16T17:52:49.404Z,38.87
2017-04-16T17:55:01.755Z,38.89
2017-04-16T17:57:14.023Z,38.89
2017-04-16T17:59:24.670Z,38.93
2017-04-16T18:01:37.090Z,38.96
2017-04-16T18:03:49.443Z,38.98
2017-04-16T18:06:00.014Z,39
2017-04-16T18:08:12.831Z,39.04
2017-04-16T18:10:26.128Z,39.03
2017-04-16T18:12:38.408Z,39.04
2017-04-16T18:14:50.718Z,39.04
2017-04-16T18:17:03.035Z,39.07
2017-04-16T18:19:15.346Z,39.06
2017-04-16T18:21:27.704Z,39.11
2017-04-16T18:23:35.284Z,39.14
2017-04-16T18:25:47.619Z,39.15
2017-04-16T18:28:08.698Z,39.12
2017-04-16T18:30:21.844Z,39.13
2017-04-16T18:32:34.142Z,39.16
2017-04-16T18:34:46.692Z,39.18
2017-04-16T18:36:54.144Z,39.21
2017-04-16T18:39:01.626Z,39.24
2017-04-16T18:41:13.958Z,39.25
2017-04-16T18:43:26.232Z,39.25
2017-04-16T18:45:38.564Z,39.28
2017-04-16T18:47:50.803Z,39.3
2017-04-16T18:50:03.174Z,39.29
2017-04-16T18:52:15.471Z,39.29
2017-04-16T18:54:22.910Z,39.3
2017-04-16T18:56:35.470Z,39.29
2017-04-16T18:58:47.899Z,39.31
2017-04-16T19:01:00.707Z,39.35
2017-04-16T19:03:12.940Z,39.34
2017-04-16T19:05:25.205Z,39.33
2017-04-16T19:07:37.513Z,39.35
2017-04-16T19:09:44.820Z,39.36
2017-04-16T19:11:57.287Z,39.39
2017-04-16T19:14:09.686Z,39.38
2017-04-16T19:16:22.161Z,39.41
2017-04-16T19:18:34.560Z,39.42
2017-04-16T19:20:47.281Z,39.41
2017-04-16T19:23:00.076Z,39.43
2017-04-16T19:25:13.131Z,39.42
2017-04-16T19:27:25.372Z,39.43
2017-04-16T19:29:37.764Z,39.44
2017-04-16T19:31:52.719Z,39.45
2017-04-16T19:34:07.804Z,39.46
2017-04-16T19:36:20.455Z,39.48
2017-04-16T19:38:33.448Z,39.48
2017-04-16T19:40:45.804Z,39.47
2017-04-16T19:42:58.268Z,39.5
2017-04-16T19:45:10.497Z,39.52
2017-04-16T19:47:22.801Z,39.53
2017-04-16T19:49:35.071Z,39.56
2017-04-16T19:51:47.501Z,39.58
2017-04-16T19:54:00.034Z,39.59
2017-04-16T19:56:12.378Z,39.59
2017-04-16T19:58:19.675Z,39.61
2017-04-16T20:00:32.058Z,39.63
2017-04-16T20:02:44.314Z,39.66
2017-04-16T20:04:51.731Z,39.7
2017-04-16T20:07:03.976Z,39.7
2017-04-16T20:09:16.358Z,39.74
2017-04-16T20:11:28.824Z,39.76
2017-04-16T20:13:41.305Z,39.8
2017-04-16T20:15:53.660Z,39.79
2017-04-16T20:18:05.936Z,39.78
2017-04-16T20:20:13.321Z,39.78
2017-04-16T20:22:20.808Z,39.8
2017-04-16T20:24:33.226Z,39.83
2017-04-16T20:26:45.599Z,39.83
2017-04-16T20:28:57.850Z,39.86
2017-04-16T20:31:10.181Z,39.89
2017-04-16T20:33:22.618Z,39.9
2017-04-16T20:35:34.824Z,39.9
2017-04-16T20:37:47.073Z,39.91
2017-04-16T20:40:00.309Z,39.91
2017-04-16T20:42:12.864Z,39.95
2017-04-16T20:44:20.113Z,39.96
2017-04-16T20:46:32.733Z,39.96
2017-04-16T20:48:45.656Z,39.97
2017-04-16T20:50:58.029Z,39.98
2017-04-16T20:53:05.361Z,39.99
2017-04-16T20:55:17.733Z,40.01
2017-04-16T20:57:25.083Z,40.03
2017-04-16T20:59:27.473Z,40.02
2017-04-16T21:01:39.815Z,40.03
2017-04-16T21:03:47.095Z,40.05
2017-04-16T21:05:59.367Z,40.06
2017-04-16T21:08:09.955Z,40.08
2017-04-16T21:10:17.390Z,40.1
2017-04-16T21:12:29.630Z,40.11
2017-04-16T21:14:41.839Z,40.11
2017-04-16T21:16:49.208Z,40.13
2017-04-16T21:19:01.548Z,40.15
2017-04-16T21:21:13.878Z,40.16
2017-04-16T21:23:26.407Z,40.18
2017-04-16T21:25:33.939Z,40.18
2017-04-16T21:27:46.324Z,40.21
2017-04-16T21:29:58.728Z,40.22
2017-04-16T21:32:11.037Z,40.23
2017-04-16T21:34:23.398Z,40.25
2017-04-16T21:36:35.790Z,40.25
2017-04-16T21:38:48.132Z,40.27
2017-04-16T21:41:00.429Z,40.28
2017-04-16T21:43:07.743Z,40.3
2017-04-16T21:45:20.106Z,40.31
2017-04-16T21:47:32.357Z,40.32
2017-04-16T21:49:44.735Z,40.35
2017-04-16T21:51:57.042Z,40.36
2017-04-16T21:54:09.313Z,40.38
2017-04-16T21:56:21.648Z,40.39
2017-04-16T21:58:34.226Z,40.42
2017-04-16T22:00:46.750Z,40.45
2017-04-16T22:02:59.049Z,40.46
2017-04-16T22:05:11.413Z,40.48
2017-04-16T22:07:23.763Z,40.49
2017-04-16T22:09:36.114Z,40.5
2017-04-16T22:11:49.579Z,40.52
2017-04-16T22:14:01.796Z,40.52
2017-04-16T22:16:12.326Z,40.53
2017-04-16T22:18:19.613Z,40.54
2017-04-16T22:20:31.908Z,40.54
2017-04-16T22:22:44.351Z,40.54
2017-04-16T22:24:51.680Z,40.54
2017-04-16T22:27:04.011Z,40.55
2017-04-16T22:29:16.307Z,40.58
2017-04-16T22:31:23.656Z,40.58
2017-04-16T22:33:36.064Z,40.58
2017-04-16T22:35:48.843Z,40.6
2017-04-16T22:37:56.175Z,40.61
2017-04-16T22:40:08.562Z,40.61
2017-04-16T22:42:20.796Z,40.62
2017-04-16T22:44:23.067Z,40.62
2017-04-16T22:46:35.405Z,40.63
2017-04-16T22:48:48.375Z,40.64
2017-04-16T22:50:55.664Z,40.65
2017-04-16T22:53:07.989Z,40.68
2017-04-16T22:55:15.422Z,40.68
2017-04-16T22:57:27.658Z,40.7
2017-04-16T22:59:39.970Z,40.69
2017-04-16T23:01:52.236Z,40.69
2017-04-16T23:04:04.551Z,40.7
2017-04-16T23:06:11.857Z,40.7
2017-04-16T23:08:24.710Z,40.69
2017-04-16T23:10:37.431Z,40.7
2017-04-16T23:12:49.655Z,40.72
2017-04-16T23:15:02.035Z,40.74
2017-04-16T23:17:09.309Z,40.74
2017-04-16T23:19:21.573Z,40.75
2017-04-16T23:21:28.946Z,40.77
2017-04-16T23:23:41.526Z,40.77
2017-04-16T23:25:53.894Z,40.77
2017-04-16T23:28:06.258Z,40.78
2017-04-16T23:30:13.610Z,40.79
2017-04-16T23:32:21.052Z,40.79
2017-04-16T23:34:33.430Z,40.81
2017-04-16T23:36:45.795Z,40.81
2017-04-16T23:38:58.182Z,40.83
2017-04-16T23:41:10.393Z,40.86
2017-04-16T23:43:22.842Z,40.87
2017-04-16T23:45:35.623Z,40.88
2017-04-16T23:47:48.014Z,40.91
2017-04-16T23:50:00.299Z,40.91
2017-04-16T23:52:12.507Z,40.91
2017-04-16T23:54:24.770Z,40.91
2017-04-16T23:56:37.073Z,40.91
2017-04-16T23:58:49.248Z,40.93
